createdAt,value
2022-11-16T00:01:09.347Z,101343.19
2022-11-16T00:03:37.329Z,101341.83
2022-11-16T00:06:07.445Z,101338.86
2022-11-16T00:08:37.992Z,101328.92
2022-11-16T00:11:20.327Z,101325.86
2022-11-16T00:13:47.540Z,101323.27
2022-11-16T00:16:22.075Z,101320.45
2022-11-16T00:18:49.432Z,101313.55
2022-11-16T00:21:16.880Z,101311.42
2022-11-16T00:23:44.221Z,101313.44
2022-11-16T00:26:15.184Z,101310.77
2022-11-16T00:28:42.527Z,101307.65
2022-11-16T00:31:12.954Z,101304.89
2022-11-16T00:33:41.923Z,101303.67
2022-11-16T00:36:12.275Z,101300.27
2022-11-16T00:38:42.970Z,101295.48
2022-11-16T00:41:14.049Z,101291.83
2022-11-16T00:43:43.577Z,101290.83
2022-11-16T00:46:18.792Z,101286.42
2022-11-16T00:48:46.038Z,101283.71
2022-11-16T00:51:15.445Z,101281.86
2022-11-16T00:53:48.374Z,101284.13
2022-11-16T00:56:19.321Z,101279.30
2022-11-16T00:58:46.511Z,101274.48
2022-11-16T01:03:57.251Z,101269.44
2022-11-16T01:06:24.794Z,101267.48
2022-11-16T01:08:53.502Z,101266.52
2022-11-16T01:11:43.642Z,101261.64
2022-11-16T01:14:14.426Z,101260.09
2022-11-16T01:16:45.523Z,101261.16
2022-11-16T01:19:14.783Z,101259.20
2022-11-16T01:21:42.264Z,101260.58
2022-11-16T01:24:10.447Z,101257.23
2022-11-16T01:26:38.750Z,101256.50
2022-11-16T01:29:06.584Z,101249.48
2022-11-16T01:31:40.104Z,101245.14
2022-11-16T01:34:08.056Z,101238.92
2022-11-16T01:36:37.192Z,101234.02
2022-11-16T01:39:06.045Z,101228.91
2022-11-16T01:41:49.534Z,101220.79
2022-11-16T01:44:34.886Z,101220.41
2022-11-16T01:47:24.721Z,101213.45
2022-11-16T01:50:39.191Z,101212.45
2022-11-16T01:53:17.566Z,101209.02
2022-11-16T01:56:00.803Z,101205.02
2022-11-16T01:58:39.670Z,101205.34
2022-11-16T02:01:24.069Z,101199.89
2022-11-16T02:04:02.699Z,101197.54
2022-11-16T02:07:11.918Z,101196.05
2022-11-16T02:10:34.942Z,101196.42
2022-11-16T02:13:30.904Z,101192.77
2022-11-16T02:16:34.396Z,101190.05
2022-11-16T02:19:38.595Z,101187.78
2022-11-16T02:22:53.938Z,101186.18
2022-11-16T02:25:47.835Z,101185.28
2022-11-16T02:28:52.175Z,101181.98
2022-11-16T02:31:30.143Z,101177.21
2022-11-16T02:34:00.965Z,101176.36
2022-11-16T02:36:28.656Z,101169.09
2022-11-16T02:39:07.079Z,101170.27
2022-11-16T02:41:37.662Z,101167.39
2022-11-16T02:44:29.763Z,101165.80
2022-11-16T02:47:05.311Z,101161.71
2022-11-16T02:49:36.741Z,101160.33
2022-11-16T02:52:05.439Z,101162.20
2022-11-16T02:54:34.154Z,101161.23
2022-11-16T02:57:07.511Z,101161.55
2022-11-16T02:59:51.342Z,101162.09
2022-11-16T03:02:43.795Z,101162.09
2022-11-16T03:05:22.246Z,101160.49
2022-11-16T03:07:59.407Z,101158.58
2022-11-16T03:10:46.307Z,101157.52
2022-11-16T03:13:15.923Z,101157.36
2022-11-16T03:15:44.492Z,101154.34
2022-11-16T03:18:17.270Z,101150.15
2022-11-16T03:20:45.565Z,101145.91
2022-11-16T03:23:14.632Z,101143.20
2022-11-16T03:25:52.444Z,101139.48
2022-11-16T03:28:29.424Z,101135.45
2022-11-16T03:31:15.543Z,101130.68
2022-11-16T03:33:51.541Z,101123.04
2022-11-16T03:36:35.848Z,101122.94
2022-11-16T03:39:11.802Z,101120.44
2022-11-16T03:41:44.570Z,101116.77
2022-11-16T03:44:15.459Z,101115.19
2022-11-16T03:46:47.604Z,101114.29
2022-11-16T03:49:16.062Z,101111.53
2022-11-16T03:51:43.459Z,101110.84
2022-11-16T03:54:10.675Z,101111.32
2022-11-16T03:56:40.384Z,101112.55
2022-11-16T03:59:09.072Z,101111.16
2022-11-16T04:01:39.279Z,101111.86
2022-11-16T04:04:33.266Z,101113.18
2022-11-16T04:07:21.764Z,101119.38
2022-11-16T04:10:08.433Z,101121.55
2022-11-16T04:12:55.337Z,101119.02
2022-11-16T04:15:41.834Z,101118.06
2022-11-16T04:18:29.246Z,101120.05
2022-11-16T04:21:15.944Z,101119.86
2022-11-16T04:24:07.292Z,101120.97
2022-11-16T04:26:55.092Z,101123.09
2022-11-16T04:29:23.008Z,101120.76
2022-11-16T04:32:12.277Z,101115.34
2022-11-16T04:35:00.339Z,101112.33
2022-11-16T04:37:48.506Z,101112.52
2022-11-16T04:40:23.997Z,101109.45
2022-11-16T04:42:52.532Z,101109.25
2022-11-16T04:45:42.462Z,101109.08
2022-11-16T04:48:11.753Z,101110.41
2022-11-16T04:50:40.898Z,101111.31
2022-11-16T04:53:11.813Z,101109.14
2022-11-16T04:55:46.835Z,101108.08
2022-11-16T04:58:14.178Z,101107.81
2022-11-16T05:00:41.914Z,101109.92
2022-11-16T05:03:10.739Z,101110.52
2022-11-16T05:05:45.562Z,101110.47
2022-11-16T05:08:16.404Z,101107.49
2022-11-16T05:10:47.564Z,101110.14
2022-11-16T05:13:15.725Z,101109.46
2022-11-16T05:15:46.670Z,101106.65
2022-11-16T05:18:17.107Z,101103.09
2022-11-16T05:21:04.951Z,101103.41
2022-11-16T05:23:55.739Z,101098.73
2022-11-16T05:26:25.544Z,101098.95
2022-11-16T05:28:53.612Z,101093.64
2022-11-16T05:31:22.296Z,101092.23
2022-11-16T05:33:49.350Z,101090.48
2022-11-16T05:36:20.388Z,101087.98
2022-11-16T05:38:56.134Z,101086.33
2022-11-16T05:41:29.432Z,101084.48
2022-11-16T05:44:03.040Z,101084.64
2022-11-16T05:46:31.316Z,101083.78
2022-11-16T05:48:59.705Z,101083.30
2022-11-16T05:51:27.561Z,101081.50
2022-11-16T05:53:57.470Z,101075.19
2022-11-16T05:56:25.118Z,101074.77
2022-11-16T05:58:58.051Z,101075.02
2022-11-16T06:01:28.083Z,101072.16
2022-11-16T06:03:58.818Z,101071.31
2022-11-16T06:06:29.965Z,101069.73
2022-11-16T06:08:58.600Z,101070.79
2022-11-16T06:11:31.376Z,101063.09
2022-11-16T06:14:01.814Z,101061.51
2022-11-16T06:16:28.888Z,101061.88
2022-11-16T06:18:58.792Z,101060.92
2022-11-16T06:21:27.768Z,101057.09
2022-11-16T06:23:57.577Z,101062.08
2022-11-16T06:26:25.864Z,101061.51
2022-11-16T06:28:55.156Z,101064.15
2022-11-16T06:31:25.578Z,101061.66
2022-11-16T06:33:54.275Z,101063.72
2022-11-16T06:36:28.189Z,101062.63
2022-11-16T06:39:03.891Z,101064.95
2022-11-16T06:41:40.175Z,101062.41
2022-11-16T06:44:08.788Z,101063.09
2022-11-16T06:46:37.769Z,101064.95
2022-11-16T06:49:05.944Z,101062.51
2022-11-16T06:51:33.925Z,101061.02
2022-11-16T06:54:05.274Z,101059.75
2022-11-16T06:56:39.204Z,101060.86
2022-11-16T06:59:08.679Z,101063.15
2022-11-16T07:01:37.438Z,101062.46
2022-11-16T07:04:12.301Z,101062.09
2022-11-16T07:06:41.164Z,101061.61
2022-11-16T07:09:15.139Z,101056.56
2022-11-16T07:11:45.862Z,101052.70
2022-11-16T07:14:16.315Z,101053.08
2022-11-16T07:16:46.106Z,101053.59
2022-11-16T07:19:16.791Z,101056.24
2022-11-16T07:21:45.491Z,101058.53
2022-11-16T07:24:25.336Z,101059.80
2022-11-16T07:27:00.599Z,101057.41
2022-11-16T07:29:38.155Z,101060.33
2022-11-16T07:32:28.695Z,101058.11
2022-11-16T07:35:03.435Z,101059.43
2022-11-16T07:37:34.555Z,101060.50
2022-11-16T07:40:11.397Z,101058.53
2022-11-16T07:42:38.779Z,101056.35
2022-11-16T07:45:24.636Z,101060.50
2022-11-16T07:47:58.480Z,101061.23
2022-11-16T07:50:44.265Z,101058.85
2022-11-16T07:53:11.722Z,101057.83
2022-11-16T07:55:39.479Z,101056.04
2022-11-16T07:58:07.079Z,101055.66
2022-11-16T08:00:39.712Z,101057.20
2022-11-16T08:03:16.500Z,101055.98
2022-11-16T08:05:59.529Z,101058.84
2022-11-16T08:08:26.786Z,101056.35
2022-11-16T08:11:00.838Z,101056.56
2022-11-16T08:13:33.592Z,101049.77
2022-11-16T08:16:03.121Z,101047.49
2022-11-16T08:18:34.790Z,101047.06
2022-11-16T08:21:11.124Z,101048.23
2022-11-16T08:23:45.331Z,101051.05
2022-11-16T08:26:22.958Z,101048.29
2022-11-16T08:29:01.419Z,101039.64
2022-11-16T08:31:32.700Z,101037.63
2022-11-16T08:34:11.928Z,101038.63
2022-11-16T08:36:49.628Z,101047.64
2022-11-16T08:39:19.824Z,101047.08
2022-11-16T08:41:48.102Z,101045.95
2022-11-16T08:44:16.732Z,101045.05
2022-11-16T08:46:46.398Z,101043.52
2022-11-16T08:49:24.723Z,101043.83
2022-11-16T08:51:52.670Z,101046.05
2022-11-16T08:54:21.261Z,101044.27
2022-11-16T08:56:49.846Z,101044.22
2022-11-16T08:59:17.951Z,101043.85
2022-11-16T09:01:53.613Z,101046.59
2022-11-16T09:04:23.430Z,101042.52
2022-11-16T09:06:56.169Z,101043.25
2022-11-16T09:09:23.513Z,101041.81
2022-11-16T09:11:52.809Z,101042.08
2022-11-16T09:14:23.540Z,101040.97
2022-11-16T09:16:51.527Z,101035.35
2022-11-16T09:19:21.329Z,101027.92
2022-11-16T09:21:48.915Z,101025.48
2022-11-16T09:24:17.076Z,101026.38
2022-11-16T09:26:44.956Z,101026.01
2022-11-16T09:29:15.605Z,101021.92
2022-11-16T09:31:43.540Z,101017.30
2022-11-16T09:34:11.111Z,101014.45
2022-11-16T09:36:38.359Z,101010.63
2022-11-16T09:39:52.954Z,101005.53
2022-11-16T09:42:47.702Z,101000.18
2022-11-16T09:45:41.851Z,100998.79
2022-11-16T09:48:12.897Z,100996.88
2022-11-16T09:50:43.554Z,100995.23
2022-11-16T09:53:24.510Z,100992.52
2022-11-16T09:55:54.452Z,100991.67
2022-11-16T09:58:28.780Z,100988.49
2022-11-16T10:01:08.459Z,100983.45
2022-11-16T10:03:43.144Z,100980.43
2022-11-16T10:06:42.306Z,100981.06
2022-11-16T10:09:12.821Z,100972.52
2022-11-16T10:11:49.504Z,100971.07
2022-11-16T10:14:49.119Z,100970.13
2022-11-16T10:17:25.627Z,100968.53
2022-11-16T10:20:17.246Z,100967.79
2022-11-16T10:22:50.905Z,100960.03
2022-11-16T10:25:24.380Z,100955.04
2022-11-16T10:28:04.587Z,100952.55
2022-11-16T10:30:39.766Z,100949.16
2022-11-16T10:33:14.740Z,100941.30
2022-11-16T10:35:54.140Z,100931.61
2022-11-16T10:38:31.454Z,100924.94
2022-11-16T10:41:06.774Z,100918.20
2022-11-16T10:43:41.123Z,100908.91
2022-11-16T10:46:22.503Z,100909.64
2022-11-16T10:49:17.181Z,100903.27
2022-11-16T10:51:44.547Z,100897.17
2022-11-16T10:54:16.542Z,100892.34
2022-11-16T10:56:57.539Z,100884.81
2022-11-16T10:59:49.277Z,100881.20
2022-11-16T11:02:35.222Z,100881.52
2022-11-16T11:05:14.752Z,100878.48
2022-11-16T11:07:47.082Z,100872.42
2022-11-16T11:10:31.808Z,100873.54
2022-11-16T11:13:26.189Z,100867.48
2022-11-16T11:16:15.688Z,100869.23
2022-11-16T11:18:43.496Z,100862.23
2022-11-16T11:21:26.373Z,100853.64
2022-11-16T11:24:10.647Z,100842.27
2022-11-16T11:26:50.377Z,100834.43
2022-11-16T11:29:27.282Z,100831.13
2022-11-16T11:32:00.151Z,100832.14
2022-11-16T11:34:33.141Z,100826.99
2022-11-16T11:37:03.406Z,100822.85
2022-11-16T11:39:38.616Z,100822.49
2022-11-16T11:42:15.571Z,100821.39
2022-11-16T11:45:00.262Z,100815.49
2022-11-16T11:47:57.781Z,100813.73
2022-11-16T11:50:48.500Z,100809.02
2022-11-16T11:53:44.537Z,100810.66
2022-11-16T11:56:14.339Z,100808.54
2022-11-16T11:58:43.171Z,100807.23
2022-11-16T12:01:34.678Z,100805.11
2022-11-16T12:04:23.935Z,100798.74
2022-11-16T12:07:18.770Z,100796.56
2022-11-16T12:09:59.459Z,100794.77
2022-11-16T12:12:40.764Z,100791.48
2022-11-16T12:15:26.290Z,100797.30
2022-11-16T12:18:11.301Z,100788.43
2022-11-16T12:21:12.796Z,100789.13
2022-11-16T12:24:06.064Z,100788.17
2022-11-16T12:26:36.335Z,100781.17
2022-11-16T12:29:24.920Z,100778.42
2022-11-16T12:32:28.095Z,100775.16
2022-11-16T12:35:20.234Z,100771.92
2022-11-16T12:38:13.174Z,100770.04
2022-11-16T12:41:21.329Z,100770.52
2022-11-16T12:44:03.147Z,100767.27
2022-11-16T12:46:53.052Z,100759.05
2022-11-16T12:49:36.736Z,100752.35
2022-11-16T12:52:24.087Z,100748.46
2022-11-16T12:58:08.580Z,100738.73
2022-11-16T13:01:22.196Z,100734.64
2022-11-16T13:04:19.432Z,100733.48
2022-11-16T13:06:55.949Z,100728.49
2022-11-16T13:09:38.298Z,100728.77
2022-11-16T13:12:15.400Z,100732.10
2022-11-16T13:14:53.717Z,100730.91
2022-11-16T13:17:38.969Z,100727.62
2022-11-16T13:20:19.009Z,100731.54
2022-11-16T13:23:16.515Z,100725.60
2022-11-16T13:25:53.473Z,100727.07
2022-11-16T13:28:51.647Z,100723.70
2022-11-16T13:31:38.165Z,100721.14
2022-11-16T13:34:16.529Z,100726.21
2022-11-16T13:36:51.315Z,100728.39
2022-11-16T13:39:22.901Z,100730.63
2022-11-16T13:42:06.204Z,100726.75
2022-11-16T13:44:35.859Z,100729.73
2022-11-16T13:47:07.430Z,100730.38
2022-11-16T13:49:50.664Z,100727.09
2022-11-16T13:52:23.698Z,100725.55
2022-11-16T13:54:56.337Z,100723.47
2022-11-16T13:57:36.194Z,100716.95
2022-11-16T14:00:03.735Z,100720.75
2022-11-16T14:02:37.137Z,100719.74
2022-11-16T14:05:16.798Z,100720.75
2022-11-16T14:07:50.162Z,100719.48
2022-11-16T14:10:39.202Z,100718.98
2022-11-16T14:13:42.835Z,100723.73
2022-11-16T14:16:24.112Z,100726.71
2022-11-16T14:18:53.884Z,100722.27
2022-11-16T14:21:34.109Z,100720.28
2022-11-16T14:24:19.882Z,100716.90
2022-11-16T14:27:18.002Z,100715.99
2022-11-16T14:30:13.551Z,100710.27
2022-11-16T14:32:50.202Z,100703.71
2022-11-16T14:35:30.492Z,100699.16
2022-11-16T14:38:02.346Z,100700.55
2022-11-16T14:40:43.745Z,100697.70
2022-11-16T14:43:48.297Z,100698.72
2022-11-16T14:46:36.969Z,100697.61
2022-11-16T14:49:05.310Z,100701.90
2022-11-16T14:51:41.447Z,100707.09
2022-11-16T14:54:20.914Z,100713.35
2022-11-16T14:57:06.441Z,100708.52
2022-11-16T14:59:34.054Z,100707.58
2022-11-16T15:02:13.063Z,100701.85
2022-11-16T15:04:40.752Z,100698.92
2022-11-16T15:07:08.926Z,100697.82
2022-11-16T15:09:43.143Z,100697.91
2022-11-16T15:12:36.591Z,100698.32
2022-11-16T15:15:29.189Z,100696.67
2022-11-16T15:17:59.904Z,100697.95
2022-11-16T15:20:32.285Z,100701.77
2022-11-16T15:23:01.234Z,100698.75
2022-11-16T15:25:36.123Z,100697.64
2022-11-16T15:28:19.013Z,100690.77
2022-11-16T15:30:50.337Z,100695.74
2022-11-16T15:33:22.913Z,100705.13
2022-11-16T15:35:50.318Z,100704.81
2022-11-16T15:38:24.647Z,100701.73
2022-11-16T15:41:04.787Z,100703.22
2022-11-16T15:43:45.072Z,100701.84
2022-11-16T15:46:25.458Z,100699.52
2022-11-16T15:48:54.646Z,100701.92
2022-11-16T15:51:31.672Z,100701.81
2022-11-16T15:54:55.669Z,100702.80
2022-11-16T15:57:25.447Z,100709.39
2022-11-16T16:00:00.216Z,100708.70
2022-11-16T16:02:30.901Z,100713.52
2022-11-16T16:04:58.394Z,100720.86
2022-11-16T16:07:43.233Z,100718.80
2022-11-16T16:10:19.611Z,100717.86
2022-11-16T16:12:56.243Z,100716.16
2022-11-16T16:15:36.868Z,100717.57
2022-11-16T16:18:13.378Z,100721.63
2022-11-16T16:20:47.909Z,100720.74
2022-11-16T16:23:16.689Z,100723.94
2022-11-16T16:25:50.259Z,100721.75
2022-11-16T16:28:17.981Z,100723.55
2022-11-16T16:30:45.214Z,100721.95
2022-11-16T16:33:20.247Z,100716.22
2022-11-16T16:35:49.942Z,100720.10
2022-11-16T16:38:17.318Z,100720.25
2022-11-16T16:40:44.370Z,100720.47
2022-11-16T16:43:11.556Z,100722.17
2022-11-16T16:45:44.181Z,100723.45
2022-11-16T16:48:14.642Z,100728.17
2022-11-16T16:50:41.762Z,100727.01
2022-11-16T16:53:12.638Z,100724.73
2022-11-16T16:55:40.098Z,100719.98
2022-11-16T16:58:07.503Z,100716.44
2022-11-16T17:00:35.172Z,100717.28
2022-11-16T17:03:03.078Z,100717.50
2022-11-16T17:05:34.601Z,100716.64
2022-11-16T17:08:02.212Z,100717.34
2022-11-16T17:10:30.415Z,100717.04
2022-11-16T17:12:57.901Z,100716.09
2022-11-16T17:15:25.887Z,100716.83
2022-11-16T17:17:53.764Z,100713.42
2022-11-16T17:20:21.117Z,100717.03
2022-11-16T17:22:48.440Z,100717.73
2022-11-16T17:25:16.022Z,100719.53
2022-11-16T17:27:43.282Z,100719.20
2022-11-16T17:30:11.409Z,100712.40
2022-11-16T17:32:38.748Z,100711.51
2022-11-16T17:35:06.105Z,100706.71
2022-11-16T17:37:33.422Z,100708.23
2022-11-16T17:40:00.874Z,100709.14
2022-11-16T17:42:28.349Z,100714.05
2022-11-16T17:44:55.907Z,100711.83
2022-11-16T17:47:23.244Z,100708.83
2022-11-16T17:49:51.510Z,100710.27
2022-11-16T17:52:19.289Z,100708.17
2022-11-16T17:54:46.452Z,100710.97
2022-11-16T17:57:14.048Z,100711.40
2022-11-16T17:59:41.753Z,100709.82
2022-11-16T18:02:12.643Z,100712.63
2022-11-16T18:04:42.272Z,100712.78
2022-11-16T18:07:11.471Z,100714.01
2022-11-16T18:09:38.917Z,100715.92
2022-11-16T18:12:06.838Z,100718.64
2022-11-16T18:14:34.001Z,100715.13
2022-11-16T18:17:05.001Z,100712.02
2022-11-16T18:19:34.266Z,100712.29
2022-11-16T18:22:01.587Z,100710.35
2022-11-16T18:24:29.960Z,100707.39
2022-11-16T18:26:58.176Z,100711.27
2022-11-16T18:29:25.673Z,100709.89
2022-11-16T18:31:53.663Z,100710.80
2022-11-16T18:34:21.464Z,100712.74
2022-11-16T18:36:51.139Z,100716.57
2022-11-16T18:39:19.204Z,100713.34
2022-11-16T18:41:54.707Z,100715.01
2022-11-16T18:44:23.457Z,100713.69
2022-11-16T18:46:51.763Z,100711.61
2022-11-16T18:49:19.935Z,100709.85
2022-11-16T18:51:48.334Z,100708.86
2022-11-16T18:54:15.924Z,100712.02
2022-11-16T18:56:43.270Z,100709.86
2022-11-16T18:59:12.950Z,100707.80
2022-11-16T19:01:41.328Z,100707.85
2022-11-16T19:04:11.306Z,100711.20
2022-11-16T19:06:38.545Z,100711.20
2022-11-16T19:09:10.273Z,100715.73
2022-11-16T19:11:38.424Z,100715.30
2022-11-16T19:14:08.415Z,100714.64
2022-11-16T19:16:43.071Z,100715.02
2022-11-16T19:19:15.056Z,100713.53
2022-11-16T19:21:43.658Z,100716.13
2022-11-16T19:24:10.765Z,100719.09
2022-11-16T19:26:38.400Z,100716.86
2022-11-16T19:29:05.812Z,100718.92
2022-11-16T19:31:34.087Z,100725.77
2022-11-16T19:34:04.721Z,100724.50
2022-11-16T19:36:33.557Z,100721.21
2022-11-16T19:39:01.731Z,100719.56
2022-11-16T19:41:30.307Z,100719.78
2022-11-16T19:44:02.093Z,100720.26
2022-11-16T19:46:32.364Z,100721.16
2022-11-16T19:49:02.034Z,100721.59
2022-11-16T19:51:31.907Z,100719.84
2022-11-16T19:54:00.741Z,100722.05
2022-11-16T19:56:28.392Z,100721.45
2022-11-16T19:58:55.908Z,100720.59
2022-11-16T20:01:28.087Z,100718.74
2022-11-16T20:03:59.623Z,100720.11
2022-11-16T20:06:30.134Z,100718.46
2022-11-16T20:09:01.229Z,100717.90
2022-11-16T20:11:34.810Z,100717.52
2022-11-16T20:14:07.064Z,100720.20
2022-11-16T20:16:39.268Z,100722.55
2022-11-16T20:19:08.397Z,100721.10
2022-11-16T20:21:41.860Z,100717.77
2022-11-16T20:24:15.977Z,100713.79
2022-11-16T20:26:46.707Z,100712.46
2022-11-16T20:29:18.907Z,100717.15
2022-11-16T20:31:47.507Z,100716.04
2022-11-16T20:34:17.268Z,100713.26
2022-11-16T20:36:46.850Z,100708.85
2022-11-16T20:39:16.729Z,100712.46
2022-11-16T20:41:44.651Z,100711.40
2022-11-16T20:44:22.444Z,100711.14
2022-11-16T20:46:52.944Z,100708.45
2022-11-16T20:49:21.007Z,100712.48
2022-11-16T20:51:50.110Z,100709.77
2022-11-16T20:54:17.902Z,100707.77
2022-11-16T20:56:45.551Z,100707.66
2022-11-16T20:59:13.597Z,100702.14
2022-11-16T21:01:45.593Z,100703.46
2022-11-16T21:04:13.054Z,100701.12
2022-11-16T21:06:41.645Z,100700.23
2022-11-16T21:09:16.661Z,100697.81
2022-11-16T21:12:03.043Z,100697.35
2022-11-16T21:14:31.916Z,100695.96
2022-11-16T21:16:59.356Z,100696.50
2022-11-16T21:19:27.446Z,100698.25
2022-11-16T21:21:54.988Z,100699.73
2022-11-16T21:24:24.959Z,100699.50
2022-11-16T21:26:52.839Z,100693.08
2022-11-16T21:29:26.155Z,100688.83
2022-11-16T21:31:53.946Z,100684.91
2022-11-16T21:34:21.765Z,100683.30
2022-11-16T21:36:49.473Z,100681.81
2022-11-16T21:39:17.456Z,100683.06
2022-11-16T21:41:44.618Z,100686.77
2022-11-16T21:44:12.773Z,100686.57
2022-11-16T21:46:40.135Z,100690.21
2022-11-16T21:49:08.368Z,100690.64
2022-11-16T21:51:35.669Z,100688.48
2022-11-16T21:54:04.103Z,100687.64
2022-11-16T21:56:31.426Z,100689.60
2022-11-16T21:58:59.432Z,100681.70
2022-11-16T22:01:48.292Z,100680.02
2022-11-16T22:04:34.534Z,100683.31
2022-11-16T22:07:22.270Z,100687.16
2022-11-16T22:09:49.400Z,100686.09
2022-11-16T22:12:17.625Z,100686.04
2022-11-16T22:14:44.843Z,100686.83
2022-11-16T22:17:12.109Z,100683.27
2022-11-16T22:19:39.674Z,100679.08
2022-11-16T22:22:07.467Z,100679.40
2022-11-16T22:24:34.786Z,100675.70
2022-11-16T22:27:02.964Z,100672.56
2022-11-16T22:29:30.837Z,100669.81
2022-11-16T22:31:58.808Z,100667.77
2022-11-16T22:34:26.592Z,100673.07
2022-11-16T22:36:56.888Z,100672.14
2022-11-16T22:39:24.703Z,100668.80
2022-11-16T22:41:53.672Z,100667.86
2022-11-16T22:44:21.745Z,100663.29
2022-11-16T22:46:50.258Z,100662.08
2022-11-16T22:49:19.454Z,100656.77
2022-11-16T22:51:47.668Z,100652.95
2022-11-16T22:54:16.208Z,100648.61
2022-11-16T22:56:44.116Z,100647.73
2022-11-16T22:59:11.544Z,100650.98
2022-11-16T23:01:39.573Z,100645.98
2022-11-16T23:04:07.513Z,100644.22
2022-11-16T23:06:34.863Z,100642.16
2022-11-16T23:09:03.302Z,100636.69
2022-11-16T23:11:49.690Z,100630.85
2022-11-16T23:14:36.881Z,100628.69
2022-11-16T23:17:04.687Z,100632.17
2022-11-16T23:19:52.473Z,100623.31
2022-11-16T23:22:41.301Z,100623.80
2022-11-16T23:25:31.148Z,100624.88
2022-11-16T23:28:01.568Z,100621.84
2022-11-16T23:30:29.327Z,100626.15
2022-11-16T23:32:56.563Z,100631.52
2022-11-16T23:35:23.921Z,100634.23
2022-11-16T23:37:58.939Z,100638.33
2022-11-16T23:40:28.754Z,100639.81
2022-11-16T23:43:15.437Z,100638.50
2022-11-16T23:45:44.480Z,100640.95
2022-11-16T23:48:14.259Z,100636.38
2022-11-16T23:50:42.032Z,100635.04
2022-11-16T23:53:10.492Z,100636.05
2022-11-16T23:55:39.366Z,100638.39
2022-11-16T23:58:11.135Z,100635.10
